Time;durP1;ratioP1;P1;durP2;ratioP2;P2;SDS_P1;SDS_P2;PMS_P1;PMS_P2;Temp;Humidity;BMP_temperature;BMP_pressure;BME280_temperature;BME280_humidity;BME280_pressure;Samples;Min_cycle;Max_cycle;Signal;HPM_P1;HPM_P2
2023/12/17 00:00:39;;;;;;;29.30;19.50;;;;;;;1.00;100.00;102222.79;105360;1261;73141;-77
2023/12/17 00:03:06;;;;;;;28.60;18.90;;;;;;;1.00;100.00;102218.66;105322;1260;62497;-76
2023/12/17 00:05:47;;;;;;;29.70;20.00;;;;;;;1.00;100.00;102220.91;105261;1266;72649;-74
2023/12/17 00:08:19;;;;;;;33.40;21.30;;;;;;;1.01;100.00;102222.82;105256;1266;61018;-77
2023/12/17 00:10:46;;;;;;;34.80;21.40;;;;;;;1.02;100.00;102219.20;105265;1266;59665;-77
2023/12/17 00:13:13;;;;;;;29.80;19.30;;;;;;;1.03;100.00;102224.38;105288;1260;73157;-75
2023/12/17 00:15:40;;;;;;;33.50;22.50;;;;;;;1.04;100.00;102217.84;105221;1266;63860;-76
2023/12/17 00:18:07;;;;;;;34.80;20.70;;;;;;;1.06;100.00;102212.51;105243;1260;71668;-77
2023/12/17 00:20:35;;;;;;;36.60;22.30;;;;;;;1.07;100.00;102209.59;105218;1266;61231;-77
2023/12/17 00:23:04;;;;;;;38.70;22.00;;;;;;;1.09;100.00;102207.20;105282;1261;59567;-78
2023/12/17 00:25:31;;;;;;;34.50;22.00;;;;;;;1.11;100.00;102205.48;105188;1266;73029;-78
2023/12/17 00:27:58;;;;;;;34.70;22.40;;;;;;;1.12;100.00;102204.27;105176;1260;62376;-77
2023/12/17 00:30:25;;;;;;;34.90;20.70;;;;;;;1.13;100.00;102202.02;105167;1260;71312;-75
2023/12/17 00:32:52;;;;;;;36.10;21.60;;;;;;;1.12;100.00;102203.59;105121;1261;59653;-76
2023/12/17 00:35:20;;;;;;;33.40;22.00;;;;;;;1.14;100.00;102205.66;105228;1261;60161;-76
2023/12/17 00:37:47;;;;;;;34.20;22.00;;;;;;;1.16;100.00;102207.56;105247;1260;73173;-75
2023/12/17 00:40:14;;;;;;;38.20;24.00;;;;;;;1.17;100.00;102203.27;105133;1266;63852;-76
2023/12/17 00:42:41;;;;;;;33.20;21.00;;;;;;;1.18;100.00;102195.17;105179;1264;72673;-77
2023/12/17 00:45:09;;;;;;;39.20;23.70;;;;;;;1.19;100.00;102199.31;105160;1263;61209;-77
2023/12/17 00:47:36;;;;;;;37.50;23.30;;;;;;;1.21;100.00;102199.14;105219;1260;60302;-76
2023/12/17 00:50:04;;;;;;;38.00;23.30;;;;;;;1.23;100.00;102200.70;105339;1261;71934;-75
2023/12/17 00:52:31;;;;;;;36.50;24.10;;;;;;;1.24;100.00;102198.48;105221;1266;63717;-77
2023/12/17 00:54:59;;;;;;;37.20;21.60;;;;;;;1.26;100.00;102195.89;105337;1260;71337;-77
2023/12/17 00:57:26;;;;;;;36.40;22.20;;;;;;;1.29;100.00;102190.39;105204;1260;59699;-77
2023/12/17 00:59:53;;;;;;;37.30;23.60;;;;;;;1.32;100.00;102193.67;105138;1260;60234;-76
2023/12/17 01:02:20;;;;;;;38.40;23.20;;;;;;;1.36;100.00;102190.23;105182;1261;73134;-76
2023/12/17 01:04:46;;;;;;;36.70;21.40;;;;;;;1.39;100.00;102185.59;105122;1264;63678;-74
2023/12/17 01:07:13;;;;;;;41.40;23.50;;;;;;;1.39;100.00;102184.56;105140;1266;72713;-78
2023/12/17 01:09:40;;;;;;;35.30;23.10;;;;;;;1.40;100.00;102178.54;105202;1261;59741;-78
2023/12/17 01:12:07;;;;;;;33.40;22.20;;;;;;;1.42;100.00;102167.69;105223;1265;59567;-76
2023/12/17 01:14:35;;;;;;;36.10;21.60;;;;;;;1.43;100.00;102162.70;105313;1260;72851;-76
2023/12/17 01:17:03;;;;;;;34.70;22.60;;;;;;;1.46;100.00;102162.52;105203;1266;63793;-76
2023/12/17 01:19:36;;;;;;;34.20;21.30;;;;;;;1.47;100.00;102163.05;105332;1265;72789;-77
2023/12/17 01:22:03;;;;;;;34.90;22.90;;;;;;;1.48;100.00;102162.88;105256;1266;59742;-76
2023/12/17 01:24:31;;;;;;;33.30;22.90;;;;;;;1.47;100.00;102166.52;105301;1260;60323;-76
2023/12/17 01:26:59;;;;;;;39.40;23.50;;;;;;;1.47;100.00;102164.94;105281;1260;72905;-74
2023/12/17 01:29:26;;;;;;;35.40;22.60;;;;;;;1.46;100.00;102159.94;105052;1260;63707;-76
2023/12/17 01:31:54;;;;;;;37.80;23.40;;;;;;;1.47;100.00;102166.33;105193;1264;72629;-77
2023/12/17 01:34:22;;;;;;;38.80;24.60;;;;;;;1.48;100.00;102164.42;105249;1265;61079;-75
2023/12/17 01:36:49;;;;;;;38.60;23.70;;;;;;;1.49;100.00;102165.98;105294;1260;60543;-79
2023/12/17 01:39:17;;;;;;;39.70;23.90;;;;;;;1.48;100.00;102169.77;105253;1261;73749;-76
2023/12/17 01:41:46;;;;;;;38.70;23.50;;;;;;;1.49;100.00;102173.74;105150;1264;61414;-76
2023/12/17 01:44:13;;;;;;;39.10;24.20;;;;;;;1.52;100.00;102171.85;105233;1260;72616;-77
2023/12/17 01:46:41;;;;;;;37.30;22.60;;;;;;;1.54;100.00;102170.48;105204;1260;60524;-76
2023/12/17 01:49:08;;;;;;;39.90;23.90;;;;;;;1.55;100.00;102172.89;105172;1260;60553;-76
2023/12/17 01:51:36;;;;;;;36.30;22.10;;;;;;;1.56;100.00;102172.91;105138;1260;73862;-75
2023/12/17 01:54:02;;;;;;;42.40;24.20;;;;;;;1.56;100.00;102175.83;105122;1265;63882;-74
2023/12/17 01:56:30;;;;;;;34.40;21.90;;;;;;;1.58;100.00;102177.38;104990;1260;72852;-75
2023/12/17 01:58:57;;;;;;;38.50;22.60;;;;;;;1.58;100.00;102176.18;105255;1266;60447;-76
2023/12/17 02:01:25;;;;;;;37.90;22.70;;;;;;;1.60;100.00;102177.20;105324;1260;60448;-75
2023/12/17 02:03:52;;;;;;;35.40;22.20;;;;;;;1.60;100.00;102177.56;105201;1260;73842;-75
2023/12/17 02:06:19;;;;;;;37.60;21.80;;;;;;;1.60;100.00;102176.35;105220;1261;62494;-74
2023/12/17 02:08:46;;;;;;;39.40;24.80;;;;;;;1.61;100.00;102176.52;105236;1260;72646;-78
2023/12/17 02:11:13;;;;;;;37.40;21.60;;;;;;;1.63;100.00;102182.73;105289;1260;61140;-75
2023/12/17 02:13:40;;;;;;;42.60;23.00;;;;;;;1.65;100.00;102178.95;105236;1260;60524;-77
2023/12/17 02:16:07;;;;;;;34.20;21.70;;;;;;;1.68;100.00;102179.82;105224;1261;73852;-76
2023/12/17 02:18:34;;;;;;;34.60;21.70;;;;;;;1.71;100.00;102183.79;105311;1264;63904;-75
2023/12/17 02:21:01;;;;;;;38.20;21.60;;;;;;;1.74;100.00;102182.59;105318;1260;72534;-75
2023/12/17 02:23:29;;;;;;;35.80;22.10;;;;;;;1.75;100.00;102180.52;105318;1266;61286;-76
2023/12/17 02:25:56;;;;;;;37.80;23.80;;;;;;;1.78;100.00;102181.73;105305;1263;60453;-75
2023/12/17 02:28:23;;;;;;;41.20;23.30;;;;;;;1.80;100.00;102184.84;105293;1265;73891;-75
2023/12/17 02:30:50;;;;;;;37.70;21.80;;;;;;;1.81;100.00;102186.40;105236;1260;62898;-77
2023/12/17 02:33:17;;;;;;;40.90;24.90;;;;;;;1.82;100.00;102189.34;105179;1260;72795;-76
2023/12/17 02:35:44;;;;;;;38.20;21.40;;;;;;;1.84;100.00;102188.12;105279;1266;61146;-76
2023/12/17 02:38:11;;;;;;;36.60;21.80;;;;;;;1.85;100.00;102185.53;105321;1266;60414;-76
2023/12/17 02:40:38;;;;;;;39.20;22.80;;;;;;;1.85;100.00;102188.29;105209;1262;73864;-76
2023/12/17 02:43:05;;;;;;;38.10;23.10;;;;;;;1.85;100.00;102190.54;105173;1260;62516;-77
2023/12/17 02:45:32;;;;;;;38.40;22.80;;;;;;;1.86;100.00;102190.88;105230;1260;71364;-76
2023/12/17 02:47:59;;;;;;;40.70;23.70;;;;;;;1.88;100.00;102187.45;105306;1260;60568;-77
2023/12/17 02:50:28;;;;;;;41.90;23.20;;;;;;;1.89;100.00;102187.77;105155;1260;60782;-77
2023/12/17 02:52:55;;;;;;;37.60;22.30;;;;;;;1.91;100.00;102186.93;105208;1260;73661;-75
2023/12/17 02:55:22;;;;;;;40.60;23.20;;;;;;;1.93;100.00;102184.67;105151;1264;63856;-78
2023/12/17 02:57:50;;;;;;;40.70;25.00;;;;;;;1.93;100.00;102187.44;105197;1260;72652;-77
2023/12/17 03:00:17;;;;;;;41.00;23.00;;;;;;;1.93;100.00;102187.61;105157;1260;60511;-77
2023/12/17 03:02:44;;;;;;;37.80;22.30;;;;;;;1.93;100.00;102185.72;105223;1261;60354;-76
2023/12/17 03:05:11;;;;;;;39.70;24.10;;;;;;;1.94;100.00;102187.97;105147;1260;73791;-75
2023/12/17 03:07:37;;;;;;;38.40;22.20;;;;;;;1.94;100.00;102186.93;105213;1260;63680;-77
2023/12/17 03:10:05;;;;;;;37.50;21.70;;;;;;;1.95;100.00;102182.10;105243;1260;72553;-76
2023/12/17 03:12:32;;;;;;;38.80;22.00;;;;;;;1.96;100.00;102189.02;105246;1265;61228;-74
2023/12/17 03:14:59;;;;;;;37.50;23.20;;;;;;;1.96;100.00;102186.59;105319;1264;60447;-78
2023/12/17 03:17:26;;;;;;;37.40;21.90;;;;;;;1.96;100.00;102180.20;105263;1260;73959;-74
2023/12/17 03:19:53;;;;;;;31.50;19.00;;;;;;;1.96;100.00;102184.52;105339;1264;63836;-75
2023/12/17 03:22:20;;;;;;;34.60;21.60;;;;;;;1.95;100.00;102178.46;105273;1260;72515;-78
2023/12/17 03:24:47;;;;;;;38.00;21.00;;;;;;;1.95;100.00;102177.79;105285;1264;61355;-77
2023/12/17 03:27:14;;;;;;;35.60;21.10;;;;;;;1.95;100.00;102180.03;105274;1260;60481;-75
2023/12/17 03:29:42;;;;;;;36.80;21.00;;;;;;;1.95;100.00;102178.83;105205;1260;72753;-78
2023/12/17 03:32:09;;;;;;;37.30;21.30;;;;;;;1.96;100.00;102181.94;105222;1264;63579;-76
2023/12/17 03:34:36;;;;;;;38.50;21.30;;;;;;;1.96;100.00;102185.91;105309;1260;72609;-75
2023/12/17 03:37:03;;;;;;;40.90;22.70;;;;;;;1.97;100.00;102182.27;105287;1261;60472;-76
2023/12/17 03:39:31;;;;;;;33.60;20.60;;;;;;;1.97;100.00;102179.00;105312;1260;60549;-77
2023/12/17 03:41:58;;;;;;;38.00;21.50;;;;;;;1.95;100.00;102174.68;105377;1264;72664;-76
2023/12/17 03:44:25;;;;;;;41.40;22.20;;;;;;;1.95;100.00;102169.84;105301;1260;62295;-76
2023/12/17 03:46:52;;;;;;;33.30;20.60;;;;;;;1.96;100.00;102170.89;105270;1260;71564;-76
2023/12/17 03:49:19;;;;;;;32.70;20.50;;;;;;;1.97;100.00;102173.30;105338;1260;60460;-76
2023/12/17 03:51:46;;;;;;;37.90;23.60;;;;;;;1.97;100.00;102163.98;105347;1264;60355;-77
2023/12/17 03:54:13;;;;;;;34.50;22.10;;;;;;;1.96;100.00;102165.03;105206;1264;74387;-76
2023/12/17 03:56:46;;;;;;;35.90;20.70;;;;;;;1.97;100.00;102158.48;105319;1264;63745;-75
2023/12/17 03:59:13;;;;;;;36.00;21.70;;;;;;;1.98;100.00;102153.81;105284;1260;71264;-75
2023/12/17 04:01:47;;;;;;;35.20;21.10;;;;;;;2.00;100.00;102156.41;105259;1263;60881;-75
2023/12/17 04:04:14;;;;;;;38.00;21.60;;;;;;;2.01;100.00;102158.13;105317;1260;60447;-74
2023/12/17 04:06:42;;;;;;;36.60;21.60;;;;;;;2.02;100.00;102157.26;105217;1261;72383;-75
2023/12/17 04:09:10;;;;;;;32.10;18.10;;;;;;;2.03;100.00;102160.72;105261;1264;63724;-75
2023/12/17 04:11:37;;;;;;;33.20;20.60;;;;;;;2.04;100.00;102158.48;105229;1260;72655;-77
2023/12/17 04:14:04;;;;;;;31.70;19.50;;;;;;;2.03;100.00;102157.27;105225;1260;61316;-75
2023/12/17 04:16:31;;;;;;;31.90;20.30;;;;;;;2.03;100.00;102157.27;105359;1260;60536;-75
2023/12/17 04:18:58;;;;;;;28.80;18.00;;;;;;;2.01;100.00;102160.03;105220;1260;72395;-75
2023/12/17 04:21:25;;;;;;;28.30;18.60;;;;;;;1.99;100.00;102157.10;105144;1259;62493;-77
2023/12/17 04:23:53;;;;;;;29.20;18.80;;;;;;;1.97;100.00;102159.33;105271;1260;72435;-75
2023/12/17 04:26:21;;;;;;;28.90;18.10;;;;;;;1.96;100.00;102160.72;105376;1266;61082;-77
2023/12/17 04:28:49;;;;;;;31.80;18.10;;;;;;;1.96;100.00;102165.55;105277;1260;60463;-74
2023/12/17 04:31:15;;;;;;;30.30;18.30;;;;;;;1.97;100.00;102166.23;105168;1260;72422;-79
2023/12/17 04:33:42;;;;;;;33.70;19.60;;;;;;;1.96;100.00;102165.88;105165;1264;63570;-75
2023/12/17 04:36:09;;;;;;;36.00;20.10;;;;;;;1.98;100.00;102173.47;105141;1264;72765;-74
2023/12/17 04:38:37;;;;;;;29.80;18.20;;;;;;;1.98;100.00;102170.54;105176;1264;60358;-74
2023/12/17 04:41:05;;;;;;;33.00;19.00;;;;;;;1.98;100.00;102171.05;105325;1260;60355;-75
2023/12/17 04:43:33;;;;;;;25.90;15.20;;;;;;;1.97;100.00;102166.58;105285;1260;73862;-74
2023/12/17 04:46:00;;;;;;;29.40;17.10;;;;;;;1.97;100.00;102164.34;105284;1264;62363;-75
2023/12/17 04:48:27;;;;;;;33.80;19.10;;;;;;;1.97;100.00;102165.36;105209;1260;72735;-74
2023/12/17 04:50:54;;;;;;;32.30;20.20;;;;;;;1.98;100.00;102164.16;105237;1266;60959;-76
2023/12/17 04:53:21;;;;;;;29.10;16.90;;;;;;;1.98;100.00;102162.77;105282;1260;61111;-76
2023/12/17 04:55:48;;;;;;;31.40;19.20;;;;;;;1.98;100.00;102158.98;105289;1264;73880;-75
2023/12/17 04:58:15;;;;;;;30.90;18.60;;;;;;;1.97;100.00;102155.36;105219;1264;63898;-75
2023/12/17 05:00:43;;;;;;;33.80;19.70;;;;;;;1.96;100.00;102155.20;105131;1259;72681;-77
2023/12/17 05:03:10;;;;;;;31.80;19.40;;;;;;;1.94;100.00;102151.23;105348;1260;61066;-77
2023/12/17 05:05:37;;;;;;;32.00;19.60;;;;;;;1.92;100.00;102154.16;105267;1260;60434;-76
2023/12/17 05:08:04;;;;;;;28.90;18.50;;;;;;;1.92;100.00;102158.46;105171;1260;73911;-77
2023/12/17 05:10:31;;;;;;;28.80;18.20;;;;;;;1.93;100.00;102156.40;105269;1260;62452;-78
2023/12/17 05:12:58;;;;;;;33.30;19.10;;;;;;;1.93;100.00;102163.46;105145;1260;71276;-75
2023/12/17 05:15:26;;;;;;;30.90;20.30;;;;;;;1.95;100.00;102166.41;105209;1260;61222;-77
2023/12/17 05:17:53;;;;;;;32.80;17.60;;;;;;;1.97;100.00;102170.89;105256;1260;60414;-75
2023/12/17 05:20:20;;;;;;;27.60;17.10;;;;;;;2.00;100.00;102168.48;105240;1260;73230;-76
2023/12/17 05:22:46;;;;;;;39.80;23.00;;;;;;;2.03;100.00;102171.41;105216;1264;63794;-75
2023/12/17 05:25:14;;;;;;;26.10;16.50;;;;;;;2.04;100.00;102171.94;105172;1260;72635;-76
2023/12/17 05:27:43;;;;;;;28.00;17.50;;;;;;;2.06;100.00;102176.92;105212;1264;61043;-75
2023/12/17 05:30:11;;;;;;;27.00;15.90;;;;;;;2.08;100.00;102183.48;105229;1260;60435;-75
2023/12/17 05:32:38;;;;;;;27.40;17.00;;;;;;;2.11;100.00;102188.49;105220;1261;73730;-74
2023/12/17 05:35:05;;;;;;;29.30;19.00;;;;;;;2.12;100.00;102183.83;105224;1260;62380;-75
2023/12/17 05:37:32;;;;;;;30.90;19.20;;;;;;;2.14;100.00;102184.36;105229;1260;72781;-76
2023/12/17 05:40:00;;;;;;;32.00;18.20;;;;;;;2.16;100.00;102186.77;105318;1264;61259;-75
2023/12/17 05:42:27;;;;;;;31.10;17.70;;;;;;;2.18;100.00;102190.05;105280;1260;60463;-74
2023/12/17 05:44:54;;;;;;;28.50;17.30;;;;;;;2.19;100.00;102187.63;105262;1264;73912;-75
2023/12/17 05:47:21;;;;;;;44.90;21.40;;;;;;;2.22;100.00;102186.42;105334;1266;63783;-73
2023/12/17 05:49:48;;;;;;;28.50;16.70;;;;;;;2.23;100.00;102185.05;105255;1266;72615;-77
2023/12/17 05:52:15;;;;;;;23.40;15.50;;;;;;;2.22;100.00;102182.81;105161;1266;61056;-74
2023/12/17 05:54:44;;;;;;;25.80;16.00;;;;;;;2.23;100.00;102188.48;105262;1261;60492;-75
2023/12/17 05:57:11;;;;;;;26.30;16.50;;;;;;;2.24;100.00;102191.43;105367;1260;73842;-76
2023/12/17 05:59:39;;;;;;;27.30;17.70;;;;;;;2.25;100.00;102191.77;105316;1264;63901;-74
2023/12/17 06:02:06;;;;;;;27.20;18.10;;;;;;;2.26;100.00;102195.05;105327;1260;72449;-74
2023/12/17 06:04:33;;;;;;;27.30;17.60;;;;;;;2.26;100.00;102191.42;105354;1264;61141;-74
2023/12/17 06:07:00;;;;;;;29.30;16.30;;;;;;;2.28;100.00;102189.71;105235;1264;60360;-76
2023/12/17 06:09:27;;;;;;;28.50;17.50;;;;;;;2.30;100.00;102186.26;105151;1261;73672;-73
2023/12/17 06:11:55;;;;;;;25.70;16.60;;;;;;;2.31;100.00;102184.52;105195;1266;63903;-75
2023/12/17 06:14:21;;;;;;;25.80;15.50;;;;;;;2.32;100.00;102185.04;105239;1260;72662;-75
2023/12/17 06:16:49;;;;;;;24.50;15.70;;;;;;;2.33;100.00;102181.06;105237;1264;61299;-75
2023/12/17 06:19:16;;;;;;;29.10;17.60;;;;;;;2.36;100.00;102184.17;105214;1260;60450;-75
2023/12/17 06:21:44;;;;;;;29.70;18.00;;;;;;;2.38;100.00;102180.20;105203;1260;73693;-76
2023/12/17 06:24:11;;;;;;;27.90;17.30;;;;;;;2.41;100.00;102180.55;105190;1265;63909;-76
2023/12/17 06:26:38;;;;;;;26.70;15.70;;;;;;;2.42;100.00;102171.75;105255;1260;72861;-76
2023/12/17 06:29:12;;;;;;;24.50;15.70;;;;;;;2.44;100.00;102172.43;105320;1266;61045;-75
2023/12/17 06:31:42;;;;;;;23.00;15.10;;;;;;;2.47;100.00;102169.15;105262;1260;60475;-75
2023/12/17 06:34:09;;;;;;;24.70;15.70;;;;;;;2.49;100.00;102162.42;105240;1266;73860;-75
2023/12/17 06:36:36;;;;;;;31.00;16.40;;;;;;;2.51;100.00;102162.08;105219;1266;63665;-76
2023/12/17 06:39:03;;;;;;;26.30;17.10;;;;;;;2.54;100.00;102161.73;105312;1260;72628;-74
2023/12/17 06:41:30;;;;;;;25.50;16.90;;;;;;;2.60;100.00;102162.39;105211;1266;61160;-74
2023/12/17 06:43:57;;;;;;;29.00;16.50;;;;;;;2.66;100.00;102157.55;105279;1260;60521;-74
2023/12/17 06:46:24;;;;;;;28.30;16.00;;;;;;;2.72;100.00;102155.98;105247;1264;72747;-75
2023/12/17 06:48:51;;;;;;;23.50;16.20;;;;;;;2.77;100.00;102149.58;105268;1266;62797;-74
2023/12/17 06:51:19;;;;;;;28.10;16.30;;;;;;;2.80;100.00;102148.36;105298;1260;72648;-75
2023/12/17 06:53:46;;;;;;;28.30;15.70;;;;;;;2.86;100.00;102150.24;105302;1265;61228;-75
2023/12/17 06:56:15;;;;;;;23.10;15.00;;;;;;;2.91;100.00;102153.49;105262;1260;60427;-77
2023/12/17 06:58:42;;;;;;;27.30;15.80;;;;;;;2.95;100.00;102155.39;105320;1261;73882;-74
2023/12/17 07:01:10;;;;;;;22.60;15.00;;;;;;;2.99;100.00;102150.71;105262;1259;62532;-77
2023/12/17 07:03:38;;;;;;;22.20;14.10;;;;;;;3.03;100.00;102152.42;105195;1260;71154;-76
2023/12/17 07:06:10;;;;;;;24.30;15.50;;;;;;;3.06;100.00;102148.27;105233;1264;61254;-75
2023/12/17 07:08:37;;;;;;;27.60;16.90;;;;;;;3.07;100.00;102145.84;105230;1266;60452;-76
2023/12/17 07:11:05;;;;;;;24.00;14.90;;;;;;;3.09;100.00;102148.42;105241;1260;73861;-74
2023/12/17 07:13:32;;;;;;;25.40;14.90;;;;;;;3.11;100.00;102150.48;105319;1266;63936;-76
2023/12/17 07:15:59;;;;;;;22.80;14.40;;;;;;;3.13;100.00;102151.87;105308;1260;72682;-75
2023/12/17 07:18:25;;;;;;;22.50;14.90;;;;;;;3.16;100.00;102152.02;105284;1264;60469;-74
2023/12/17 07:20:53;;;;;;;23.70;14.40;;;;;;;3.18;100.00;102142.16;105305;1260;60562;-77
2023/12/17 07:23:24;;;;;;;22.80;13.00;;;;;;;3.21;100.00;102140.25;105163;1260;73986;-74
2023/12/17 07:25:52;;;;;;;21.20;13.20;;;;;;;3.25;100.00;102139.18;105326;1260;63947;-76
2023/12/17 07:28:20;;;;;;;23.70;13.40;;;;;;;3.28;100.00;102139.17;105256;1260;72634;-75
2023/12/17 07:30:47;;;;;;;23.70;13.40;;;;;;;3.34;100.00;102142.08;105233;1264;61224;-74
2023/12/17 07:33:14;;;;;;;20.50;14.30;;;;;;;3.37;100.00;102139.98;105367;1260;60451;-73
2023/12/17 07:35:41;;;;;;;22.00;13.60;;;;;;;3.40;100.00;102138.77;105270;1260;73572;-74
2023/12/17 07:38:08;;;;;;;19.10;12.70;;;;;;;3.40;100.00;102140.50;105225;1260;62504;-74
2023/12/17 07:40:34;;;;;;;18.70;13.10;;;;;;;3.39;100.00;102135.49;105197;1261;72461;-75
2023/12/17 07:43:02;;;;;;;21.50;13.20;;;;;;;3.41;100.00;102134.45;105205;1266;61151;-76
2023/12/17 07:45:28;;;;;;;21.70;13.30;;;;;;;3.43;100.00;102131.65;105196;1261;60549;-76
2023/12/17 07:47:56;;;;;;;18.80;12.40;;;;;;;3.45;100.00;102127.67;105284;1260;73935;-76
2023/12/17 07:50:23;;;;;;;23.10;14.60;;;;;;;3.49;100.00;102124.02;105210;1266;63721;-74
2023/12/17 07:52:53;;;;;;;20.40;13.80;;;;;;;3.56;100.00;102119.64;105360;1260;72451;-75
2023/12/17 07:55:20;;;;;;;30.10;15.70;;;;;;;3.64;100.00;102117.17;105382;1264;61287;-75
2023/12/17 07:57:49;;;;;;;25.60;16.70;;;;;;;3.70;100.00;102115.05;105266;1261;60325;-76
2023/12/17 08:00:17;;;;;;;20.70;14.50;;;;;;;3.77;100.00;102108.95;105273;1261;74003;-76
2023/12/17 08:02:45;;;;;;;24.20;14.60;;;;;;;3.81;100.00;102095.60;105375;1265;61710;-78
2023/12/17 08:05:11;;;;;;;20.10;12.30;;;;;;;3.84;100.00;102099.73;105370;1266;71400;-75
2023/12/17 08:07:38;;;;;;;22.00;13.60;;;;;;;3.85;100.00;102093.48;105291;1260;60567;-78
2023/12/17 08:10:08;;;;;;;18.60;13.10;;;;;;;3.87;100.00;102090.36;105214;1259;60424;-76
2023/12/17 08:12:35;;;;;;;25.30;13.80;;;;;;;3.89;100.00;102083.25;105177;1260;72886;-75
2023/12/17 08:15:04;;;;;;;21.10;13.70;;;;;;;3.88;100.00;102078.58;105229;1260;63914;-75
2023/12/17 08:17:31;;;;;;;23.10;14.20;;;;;;;3.88;100.00;102087.07;105225;1260;71433;-74
2023/12/17 08:19:58;;;;;;;20.30;13.70;;;;;;;3.89;100.00;102089.83;105197;1260;61197;-77
2023/12/17 08:22:25;;;;;;;18.50;13.10;;;;;;;3.92;100.00;102089.45;105231;1261;60428;-76
2023/12/17 08:24:52;;;;;;;21.50;13.50;;;;;;;3.94;100.00;102089.96;105214;1262;73991;-76
2023/12/17 08:27:19;;;;;;;25.20;14.90;;;;;;;3.93;100.00;102089.79;105288;1266;63738;-78
2023/12/17 08:29:50;;;;;;;22.30;13.30;;;;;;;3.93;100.00;102084.95;105267;1260;72717;-75
2023/12/17 08:32:20;;;;;;;25.80;15.30;;;;;;;3.95;100.00;102081.63;105201;1265;60945;-76
2023/12/17 08:34:47;;;;;;;24.80;15.20;;;;;;;3.99;100.00;102076.59;105302;1260;60415;-77
2023/12/17 08:37:14;;;;;;;22.80;14.30;;;;;;;4.01;100.00;102072.41;105295;1261;73775;-76
2023/12/17 08:39:41;;;;;;;22.70;15.30;;;;;;;4.00;100.00;102065.50;105267;1265;63878;-77
2023/12/17 08:42:08;;;;;;;24.40;15.60;;;;;;;3.96;100.00;102050.14;105245;1261;72585;-77
2023/12/17 08:44:35;;;;;;;25.40;15.50;;;;;;;3.93;100.00;102045.66;105239;1264;61337;-77
2023/12/17 08:47:02;;;;;;;22.80;15.50;;;;;;;3.93;100.00;102042.73;105254;1260;61288;-76
2023/12/17 08:49:30;;;;;;;25.80;17.30;;;;;;;3.92;100.00;102041.70;105275;1260;73800;-76
2023/12/17 08:51:57;;;;;;;25.40;15.70;;;;;;;3.92;100.00;102043.78;105324;1266;64207;-77
2023/12/17 08:54:24;;;;;;;23.40;15.70;;;;;;;3.92;100.00;102035.99;105304;1260;72623;-79
2023/12/17 08:56:52;;;;;;;25.30;17.10;;;;;;;3.91;100.00;102026.48;105209;1264;61030;-77
2023/12/17 08:59:20;;;;;;;25.70;16.20;;;;;;;3.89;100.00;102022.36;105214;1260;60540;-78
2023/12/17 09:01:47;;;;;;;27.40;16.90;;;;;;;3.87;100.00;102028.26;105323;1260;73869;-77
2023/12/17 09:04:14;;;;;;;28.80;17.40;;;;;;;3.87;100.00;102031.54;105268;1264;63957;-79
2023/12/17 09:06:45;;;;;;;30.20;19.40;;;;;;;3.90;100.00;102036.71;105264;1260;72769;-76
2023/12/17 09:09:12;;;;;;;31.70;17.50;;;;;;;3.92;100.00;102025.78;105368;1266;60864;-78
2023/12/17 09:11:40;;;;;;;29.20;17.90;;;;;;;3.92;100.00;102026.13;105332;1260;60421;-80
2023/12/17 09:14:07;;;;;;;29.20;18.20;;;;;;;3.89;100.00;102026.85;105279;1260;72536;-78
2023/12/17 09:16:34;;;;;;;23.80;16.40;;;;;;;3.87;100.00;102017.36;105244;1265;63752;-78
2023/12/17 09:19:02;;;;;;;26.00;17.40;;;;;;;3.86;100.00;102006.98;105271;1265;72581;-79
2023/12/17 09:21:29;;;;;;;29.30;18.10;;;;;;;3.83;100.00;101995.77;105412;1265;61204;-76
2023/12/17 09:23:56;;;;;;;27.20;17.40;;;;;;;3.80;100.00;101996.48;105231;1261;60565;-76
2023/12/17 09:26:23;;;;;;;26.80;17.70;;;;;;;3.79;100.00;102002.73;105212;1266;73679;-78
2023/12/17 09:28:50;;;;;;;26.30;17.50;;;;;;;3.79;100.00;102007.39;105205;1261;62430;-77
2023/12/17 09:31:17;;;;;;;28.10;18.20;;;;;;;3.79;100.00;102000.48;105273;1260;72736;-76
2023/12/17 09:33:44;;;;;;;29.10;18.30;;;;;;;3.77;100.00;102002.06;105304;1264;60883;-76
2023/12/17 09:36:11;;;;;;;28.70;19.30;;;;;;;3.75;100.00;101995.67;105311;1260;60530;-78
2023/12/17 09:41:37;;;;;;;30.50;21.20;;;;;;;3.73;100.00;101981.85;102993;1292;600259;-79
2023/12/17 09:44:05;;;;;;;27.70;18.10;;;;;;;3.69;100.00;101978.43;104994;1264;60981;-76
2023/12/17 09:46:32;;;;;;;29.20;18.40;;;;;;;3.69;100.00;101974.11;104731;1264;60033;-77
2023/12/17 09:49:00;;;;;;;28.70;19.00;;;;;;;3.70;100.00;101973.23;104955;1269;72227;-79
2023/12/17 09:51:28;;;;;;;29.60;18.80;;;;;;;3.67;100.00;101965.83;105007;1264;61368;-78
2023/12/17 09:53:57;;;;;;;33.70;18.70;;;;;;;3.63;100.00;101964.31;105436;1263;72600;-79
2023/12/17 09:56:24;;;;;;;30.00;18.50;;;;;;;3.60;100.00;101958.28;105659;1257;164827;-80
2023/12/17 09:58:52;;;;;;;29.60;18.70;;;;;;;3.62;100.00;101948.06;105732;1255;59336;-80
2023/12/17 10:01:20;;;;;;;29.40;19.80;;;;;;;3.67;100.00;101938.51;105839;1251;71087;-80
2023/12/17 10:03:50;;;;;;;28.40;18.90;;;;;;;3.70;100.00;101930.34;105875;1251;62265;-76
2023/12/17 10:06:18;;;;;;;29.20;17.70;;;;;;;3.73;100.00;101926.16;105996;1256;72647;-77
2023/12/17 10:08:47;;;;;;;28.20;18.00;;;;;;;3.78;100.00;101921.45;106007;1252;59684;-79
2023/12/17 10:11:15;;;;;;;27.70;18.30;;;;;;;3.83;100.00;101914.12;106028;1252;60779;-76
2023/12/17 10:13:43;;;;;;;31.20;19.70;;;;;;;3.90;100.00;101913.52;106418;1255;73023;-78
2023/12/17 10:16:11;;;;;;;27.10;17.70;;;;;;;3.98;100.00;101916.55;106312;1257;63782;-78
2023/12/17 10:18:39;;;;;;;30.60;18.20;;;;;;;4.02;100.00;101927.05;106037;1252;73206;-80
2023/12/17 10:21:07;;;;;;;26.80;17.30;;;;;;;4.03;100.00;101931.89;105917;1256;59860;-78
2023/12/17 10:23:47;;;;;;;31.00;18.90;;;;;;;4.04;100.00;101933.10;105937;1250;59544;-80
2023/12/17 10:26:16;;;;;;;28.20;18.80;;;;;;;4.04;100.00;101934.98;105991;1256;73046;-78
2023/12/17 10:28:47;;;;;;;31.10;18.50;;;;;;;4.03;100.00;101930.50;105881;1251;63419;-80
2023/12/17 10:31:16;;;;;;;28.20;18.30;;;;;;;4.03;100.00;101935.69;105969;1251;72209;-78
2023/12/17 10:33:53;;;;;;;26.50;17.10;;;;;;;4.01;100.00;101933.29;105979;1257;60923;-77
2023/12/17 10:36:21;;;;;;;29.50;18.00;;;;;;;3.99;100.00;101935.23;106020;1255;59698;-79
2023/12/17 10:38:49;;;;;;;26.30;16.10;;;;;;;3.96;100.00;101928.68;105997;1256;72939;-79
2023/12/17 10:41:17;;;;;;;32.20;17.70;;;;;;;3.91;100.00;101923.71;105889;1256;63738;-78
2023/12/17 10:43:45;;;;;;;26.00;19.00;;;;;;;3.85;100.00;101921.19;105873;1254;73193;-75
2023/12/17 10:46:14;;;;;;;29.30;18.80;;;;;;;3.84;100.00;101923.61;105929;1256;60524;-77
2023/12/17 10:48:41;;;;;;;27.90;17.70;;;;;;;3.83;100.00;101922.94;105984;1255;60313;-76
2023/12/17 10:51:16;;;;;;;29.10;18.30;;;;;;;3.80;100.00;101926.09;105783;1258;74976;-76
2023/12/17 10:53:43;;;;;;;25.90;16.90;;;;;;;3.79;100.00;101928.17;106035;1251;63528;-78
2023/12/17 10:56:11;;;;;;;27.40;20.70;;;;;;;3.80;100.00;101931.80;106012;1251;72648;-78
2023/12/17 10:58:39;;;;;;;32.90;19.60;;;;;;;3.84;100.00;101933.31;105917;1250;61285;-78
2023/12/17 11:01:07;;;;;;;29.30;17.70;;;;;;;3.83;100.00;101936.61;105991;1251;59984;-78
2023/12/17 11:03:34;;;;;;;31.30;18.30;;;;;;;3.86;100.00;101935.38;106056;1256;71487;-77
2023/12/17 11:06:04;;;;;;;27.50;18.60;;;;;;;3.89;100.00;101926.69;105936;1257;62466;-77